Time;durP1;ratioP1;P1;durP2;ratioP2;P2;SDS_P1;SDS_P2;PMS_P1;PMS_P2;Temp;Humidity;BMP_temperature;BMP_pressure;BME280_temperature;BME280_humidity;BME280_pressure;Samples;Min_cycle;Max_cycle;Signal;HPM_P1;HPM_P2
2022/09/07 00:02:27;;;;;;;2.63;1.10;;;;;;;15.08;100.00;100927.47;5007614;28;20058;-84
2022/09/07 00:05:00;;;;;;;2.30;1.20;;;;;;;15.08;100.00;100932.13;4991730;28;20843;-83
2022/09/07 00:07:33;;;;;;;2.65;1.30;;;;;;;15.06;100.00;100926.94;5006774;28;20053;-83
2022/09/07 00:10:08;;;;;;;2.55;1.30;;;;;;;14.98;100.00;100921.38;5015992;28;20046;-83
2022/09/07 00:12:36;;;;;;;4.07;1.40;;;;;;;14.85;100.00;100912.84;5018866;28;20054;-83
2022/09/07 00:15:08;;;;;;;3.97;1.38;;;;;;;14.76;100.00;100911.91;5014351;28;20495;-84
2022/09/07 00:17:41;;;;;;;;;;;;;;;14.92;100.00;100920.66;5003248;28;20056;-83
2022/09/07 00:20:14;;;;;;;3.85;1.30;;;;;;;14.81;100.00;100921.97;5002255;28;19921;-83
2022/09/07 00:22:47;;;;;;;2.58;1.20;;;;;;;14.77;100.00;100927.25;5009065;28;20421;-83
2022/09/07 00:25:16;;;;;;;2.22;1.20;;;;;;;14.83;100.00;100934.25;5014801;28;20046;-84
2022/09/07 00:27:49;;;;;;;3.75;1.50;;;;;;;14.82;100.00;100932.63;5023652;28;20041;-82
2022/09/07 00:30:18;;;;;;;7.22;1.52;;;;;;;14.74;100.00;100930.59;5015570;28;20046;-84
2022/09/07 00:32:51;;;;;;;3.05;1.50;;;;;;;14.86;100.00;100928.16;5007469;28;20045;-83
2022/09/07 00:35:25;;;;;;;2.45;1.40;;;;;;;14.81;100.00;100935.69;5022304;28;20054;-84
2022/09/07 00:37:58;;;;;;;7.53;1.48;;;;;;;14.69;100.00;100926.00;5041263;28;20046;-84
2022/09/07 00:40:31;;;;;;;3.20;1.60;;;;;;;14.78;100.00;100931.63;5027744;28;20042;-83
2022/09/07 00:43:05;;;;;;;2.75;1.40;;;;;;;14.79;100.00;100919.53;5015193;28;20046;-83
2022/09/07 00:45:39;;;;;;;4.80;1.50;;;;;;;14.68;100.00;100926.31;4995101;28;20053;-83
2022/09/07 00:48:13;;;;;;;3.70;1.80;;;;;;;14.70;100.00;100926.81;4994300;28;20062;-83
2022/09/07 00:50:46;;;;;;;2.70;1.40;;;;;;;14.73;100.00;100929.75;4994650;28;20065;-82
2022/09/07 00:53:23;;;;;;;3.83;1.65;;;;;;;14.68;100.00;100921.66;5010890;28;20065;-83
2022/09/07 00:55:57;;;;;;;6.30;1.48;;;;;;;14.69;100.00;100909.56;5002762;28;20049;-84
2022/09/07 00:58:31;;;;;;;3.60;1.50;;;;;;;14.72;100.00;100919.94;4994193;28;20065;-83
2022/09/07 01:01:00;;;;;;;2.20;1.33;;;;;;;14.69;100.00;100900.53;5003634;28;20042;-83
2022/09/07 01:03:39;;;;;;;3.63;1.58;;;;;;;14.79;100.00;100909.38;5010942;28;20050;-83
2022/09/07 01:06:13;;;;;;;8.20;1.63;;;;;;;14.68;100.00;100909.88;5022470;28;20054;-85
2022/09/07 01:08:49;;;;;;;5.10;1.75;;;;;;;14.62;100.00;100904.50;5050234;28;20050;-83
2022/09/07 01:11:20;;;;;;;3.90;1.70;;;;;;;14.37;100.00;100885.75;5025488;28;20058;-83
2022/09/07 01:13:56;;;;;;;9.93;1.67;;;;;;;14.58;100.00;100910.84;5027462;28;20045;-83
2022/09/07 01:16:47;;;;;;;4.50;2.05;;;;;;;14.54;100.00;100901.59;5021146;28;20060;-83
2022/09/07 01:19:43;;;;;;;3.53;1.80;;;;;;;14.52;100.00;100906.56;5035159;28;20720;-83
2022/09/07 01:22:38;;;;;;;5.28;1.98;;;;;;;14.41;100.00;100901.25;5013512;28;20060;-84
2022/09/07 01:25:10;;;;;;;13.07;2.00;;;;;;;14.42;100.00;100902.09;4999644;28;20057;-83
2022/09/07 01:28:19;;;;;;;4.90;1.75;;;;;;;14.39;100.00;100900.75;5012241;28;20049;-83
2022/09/07 01:30:58;;;;;;;4.50;1.90;;;;;;;14.35;100.00;100896.16;4998838;28;20076;-83
2022/09/07 01:33:46;;;;;;;6.32;2.50;;;;;;;14.33;100.00;100901.94;5024416;28;20376;-84
2022/09/07 01:36:27;;;;;;;4.35;2.10;;;;;;;14.40;100.00;100896.91;5012434;28;20046;-85
2022/09/07 01:39:03;;;;;;;3.60;2.20;;;;;;;14.29;100.00;100888.06;5022008;28;20406;-84
2022/09/07 01:41:42;;;;;;;5.95;2.50;;;;;;;14.29;100.00;100885.31;5009732;28;20049;-82
2022/09/07 01:44:23;;;;;;;5.75;2.17;;;;;;;14.28;100.00;100886.44;5017426;28;20049;-83
2022/09/07 01:47:01;;;;;;;5.32;2.15;;;;;;;14.26;100.00;100885.09;4993741;28;20058;-84
2022/09/07 01:49:39;;;;;;;11.30;2.55;;;;;;;14.23;100.00;100881.03;5026462;28;20046;-83
2022/09/07 01:52:16;;;;;;;7.72;2.47;;;;;;;14.25;100.00;100888.94;5019821;28;20041;-83
2022/09/07 01:54:52;;;;;;;;;;;;;;;14.25;100.00;100888.94;5000987;28;20037;-84
2022/09/07 01:57:27;;;;;;;7.63;2.78;;;;;;;14.29;100.00;100879.84;5012329;28;20380;-84
2022/09/07 02:00:06;;;;;;;6.65;2.53;;;;;;;14.24;100.00;100870.91;5007253;28;20049;-83
2022/09/07 02:02:43;;;;;;;5.38;2.50;;;;;;;14.24;100.00;100873.66;5024668;28;20052;-83
2022/09/07 02:05:20;;;;;;;7.22;2.85;;;;;;;14.23;100.00;100875.56;5010109;28;20038;-83
2022/09/07 02:07:52;;;;;;;6.60;3.00;;;;;;;14.21;100.00;100876.97;5016226;28;20068;-83
2022/09/07 02:10:29;;;;;;;9.18;3.45;;;;;;;14.18;100.00;100872.09;5014627;28;20050;-84
2022/09/07 02:13:08;;;;;;;8.43;3.22;;;;;;;14.24;100.00;100868.97;5004813;28;20410;-83
2022/09/07 02:15:46;;;;;;;11.60;3.25;;;;;;;14.22;100.00;100851.22;5002731;28;20121;-83
2022/09/07 02:18:22;;;;;;;11.85;3.20;;;;;;;14.22;100.00;100859.44;5025937;28;20064;-84
2022/09/07 02:20:59;;;;;;;11.23;3.42;;;;;;;14.21;100.00;100857.81;5014373;28;20387;-83
2022/09/07 02:23:38;;;;;;;7.82;3.55;;;;;;;14.22;100.00;100862.97;5022006;28;20056;-83
2022/09/07 02:26:17;;;;;;;9.63;3.22;;;;;;;14.27;100.00;100856.63;5011622;28;20053;-84
2022/09/07 02:28:45;;;;;;;6.85;2.97;;;;;;;14.14;100.00;100830.84;5008810;28;20490;-83
2022/09/07 02:31:20;;;;;;;6.35;3.08;;;;;;;14.31;100.00;100856.81;5052276;28;20517;-82
2022/09/07 02:33:54;;;;;;;12.23;3.53;;;;;;;14.29;100.00;100848.91;5008464;28;20491;-83
2022/09/07 02:36:33;;;;;;;9.02;3.67;;;;;;;14.33;100.00;100857.34;5021881;28;20049;-83
2022/09/07 02:39:06;;;;;;;9.07;3.15;;;;;;;14.36;100.00;100846.63;5014479;28;20052;-84
2022/09/07 02:41:42;;;;;;;8.80;3.03;;;;;;;14.31;100.00;100846.69;5033408;28;20049;-82
2022/09/07 02:44:19;;;;;;;8.15;3.10;;;;;;;14.23;100.00;100850.13;5028046;28;20072;-84
2022/09/07 02:47:06;;;;;;;11.05;3.40;;;;;;;14.21;100.00;100852.34;5034049;28;20064;-84
2022/09/07 02:50:00;;;;;;;6.75;2.83;;;;;;;14.16;100.00;100849.69;5006557;28;20053;-84
2022/09/07 02:52:47;;;;;;;7.40;3.05;;;;;;;14.18;100.00;100856.47;5014148;28;20060;-83
2022/09/07 02:55:25;;;;;;;7.60;2.85;;;;;;;14.06;100.00;100847.94;5002582;28;20042;-84
2022/09/07 02:58:11;;;;;;;7.45;2.92;;;;;;;14.07;100.00;100852.28;5021335;28;20053;-82
2022/09/07 03:00:51;;;;;;;6.93;2.90;;;;;;;14.01;100.00;100848.03;5007964;28;20049;-83
2022/09/07 03:03:36;;;;;;;9.75;3.45;;;;;;;14.10;100.00;100851.72;5038376;28;20069;-83
2022/09/07 03:06:17;;;;;;;7.78;2.70;;;;;;;14.07;100.00;100855.88;5010775;28;20054;-84
2022/09/07 03:08:54;;;;;;;5.13;2.53;;;;;;;14.11;100.00;100856.88;5013057;28;20425;-83
2022/09/07 03:11:22;;;;;;;6.65;2.95;;;;;;;14.07;100.00;100849.56;5016343;28;20065;-82
2022/09/07 03:14:11;;;;;;;6.05;2.40;;;;;;;14.05;100.00;100846.31;5023265;28;20069;-83
2022/09/07 03:16:44;;;;;;;9.07;2.63;;;;;;;14.05;100.00;100846.31;5021327;28;20060;-83
2022/09/07 03:19:19;;;;;;;7.88;2.60;;;;;;;14.03;100.00;100848.53;5010802;28;20578;-83
2022/09/07 03:21:47;;;;;;;5.53;2.42;;;;;;;13.99;100.00;100847.50;5001439;28;20049;-83
2022/09/07 03:24:20;;;;;;;6.97;2.47;;;;;;;13.91;100.00;100844.34;5019928;28;20064;-83
2022/09/07 03:26:53;;;;;;;6.57;2.78;;;;;;;13.86;100.00;100843.63;5019586;28;20068;-84
2022/09/07 03:29:26;;;;;;;8.63;2.80;;;;;;;13.81;100.00;100839.03;5018437;28;20045;-83
2022/09/07 03:32:00;;;;;;;5.97;2.53;;;;;;;13.79;100.00;100827.56;5000521;28;20407;-83
2022/09/07 03:34:30;;;;;;;6.25;2.55;;;;;;;13.82;100.00;100832.44;5012919;28;20050;-83
2022/09/07 03:37:03;;;;;;;6.85;2.60;;;;;;;13.83;100.00;100825.88;5002720;28;20054;-83
2022/09/07 03:39:36;;;;;;;6.70;2.38;;;;;;;13.78;100.00;100821.31;5009493;28;20049;-84
2022/09/07 03:42:09;;;;;;;13.75;2.78;;;;;;;13.75;100.00;100816.44;5011782;28;20061;-83
2022/09/07 03:44:38;;;;;;;4.47;2.22;;;;;;;13.74;100.00;100811.25;5017326;28;20042;-83
2022/09/07 03:47:11;;;;;;;10.70;2.85;;;;;;;13.72;100.00;100816.22;5021529;28;20065;-84
2022/09/07 03:49:40;;;;;;;7.00;2.50;;;;;;;13.66;100.00;100803.72;5012888;28;20050;-83
2022/09/07 03:52:09;;;;;;;4.90;2.42;;;;;;;13.68;100.00;100801.50;5008817;28;20084;-84
2022/09/07 03:54:43;;;;;;;9.07;2.40;;;;;;;13.66;100.00;100804.53;5011033;28;20049;-84
2022/09/07 03:57:11;;;;;;;6.00;2.22;;;;;;;13.63;100.00;100805.13;5022312;28;20058;-83
2022/09/07 03:59:39;;;;;;;9.20;2.58;;;;;;;13.64;100.00;100809.47;5005913;28;20054;-83
2022/09/07 04:02:07;;;;;;;8.15;2.38;;;;;;;13.66;100.00;100800.97;5008032;28;20429;-83
2022/09/07 04:04:44;;;;;;;9.40;2.30;;;;;;;13.61;100.00;100788.19;5003201;28;20061;-84
2022/09/07 04:07:18;;;;;;;4.40;1.83;;;;;;;13.66;100.00;100792.78;5013217;28;20056;-83
2022/09/07 04:09:51;;;;;;;14.00;1.95;;;;;;;13.63;100.00;100796.09;5024769;28;20497;-82
2022/09/07 04:12:24;;;;;;;5.40;2.40;;;;;;;13.60;100.00;100790.13;5017389;28;20050;-84
2022/09/07 04:14:53;;;;;;;6.25;1.92;;;;;;;13.68;100.00;100791.38;5011407;28;20056;-82
2022/09/07 04:17:21;;;;;;;6.78;2.28;;;;;;;13.60;100.00;100800.25;5001075;28;20066;-84
2022/09/07 04:19:51;;;;;;;3.47;1.70;;;;;;;13.57;100.00;100793.44;5019279;28;20049;-83
2022/09/07 04:22:24;;;;;;;6.93;2.22;;;;;;;13.57;100.00;100787.97;5010541;28;20062;-83
2022/09/07 04:24:57;;;;;;;3.10;1.92;;;;;;;13.49;100.00;100785.09;5015981;28;20507;-85
2022/09/07 04:27:30;;;;;;;7.05;2.15;;;;;;;13.49;100.00;100782.38;5014857;28;20046;-83
2022/09/07 04:30:04;;;;;;;6.75;2.20;;;;;;;13.49;100.00;100772.28;5036397;28;20046;-83
2022/09/07 04:32:37;;;;;;;4.72;2.00;;;;;;;13.58;100.00;100770.47;5006868;28;20057;-83
2022/09/07 04:35:08;;;;;;;6.43;2.25;;;;;;;13.60;100.00;100772.91;5039125;28;20054;-82
2022/09/07 04:37:41;;;;;;;4.13;2.03;;;;;;;13.59;100.00;100776.75;5006845;28;20046;-83
2022/09/07 04:40:14;;;;;;;3.75;1.83;;;;;;;13.60;100.00;100772.91;5022162;28;20418;-83
2022/09/07 04:42:42;;;;;;;7.03;2.30;;;;;;;13.62;100.00;100773.44;5010613;28;20442;-83
2022/09/07 04:45:11;;;;;;;4.10;1.85;;;;;;;13.63;100.00;100775.06;5018203;28;20064;-84
2022/09/07 04:47:47;;;;;;;3.78;1.90;;;;;;;13.74;100.00;100770.22;5016540;28;20046;-84
2022/09/07 04:50:17;;;;;;;6.35;2.30;;;;;;;13.68;100.00;100761.28;5015946;28;20049;-84
2022/09/07 04:52:46;;;;;;;4.45;1.92;;;;;;;13.78;100.00;100763.03;5001518;28;20046;-82
2022/09/07 04:55:15;;;;;;;6.32;2.10;;;;;;;13.84;100.00;100767.31;5014424;28;20049;-82
2022/09/07 04:57:43;;;;;;;5.75;1.90;;;;;;;13.84;100.00;100764.59;5029010;28;20508;-82
2022/09/07 05:00:12;;;;;;;4.53;2.40;;;;;;;13.90;100.00;100774.31;5020899;28;20069;-85
2022/09/07 05:02:41;;;;;;;8.57;2.15;;;;;;;13.85;100.00;100759.91;5005203;28;20049;-85
2022/09/07 05:05:09;;;;;;;4.15;2.00;;;;;;;13.85;100.00;100765.38;5010221;28;20526;-84
2022/09/07 05:07:39;;;;;;;9.43;2.22;;;;;;;13.93;100.00;100768.25;5007916;28;20479;-84
2022/09/07 05:10:12;;;;;;;5.75;1.90;;;;;;;13.89;100.00;100766.41;5011711;28;20049;-84
2022/09/07 05:12:40;;;;;;;3.63;1.85;;;;;;;13.93;100.00;100761.97;5010827;28;20046;-82
2022/09/07 05:15:09;;;;;;;4.28;1.80;;;;;;;13.87;100.00;100758.50;5024178;28;20486;-84
2022/09/07 05:17:37;;;;;;;3.95;2.03;;;;;;;13.90;100.00;100763.38;5012230;28;20052;-84
2022/09/07 05:20:10;;;;;;;8.35;1.83;;;;;;;14.06;100.00;100766.66;5009903;28;20053;-83
2022/09/07 05:22:46;;;;;;;4.95;1.98;;;;;;;13.91;100.00;100770.47;5020810;28;20056;-83
2022/09/07 05:25:19;;;;;;;3.30;1.83;;;;;;;13.93;100.00;100764.69;5023049;28;20065;-84
2022/09/07 05:27:52;;;;;;;4.07;2.10;;;;;;;13.94;100.00;100774.53;5006645;28;20049;-83
2022/09/07 05:30:26;;;;;;;4.68;2.20;;;;;;;13.87;100.00;100780.41;5023105;28;20053;-84
2022/09/07 05:32:54;;;;;;;4.22;2.00;;;;;;;13.91;100.00;100789.63;5013323;28;20509;-83
2022/09/07 05:35:27;;;;;;;5.45;2.00;;;;;;;13.95;100.00;100789.84;5012375;28;20060;-84
2022/09/07 05:38:02;;;;;;;5.53;2.05;;;;;;;14.00;100.00;100792.47;5031688;28;20046;-82
2022/09/07 05:40:31;;;;;;;8.18;2.05;;;;;;;14.04;100.00;100818.13;5015808;28;20053;-84
2022/09/07 05:43:05;;;;;;;4.80;1.83;;;;;;;14.05;100.00;100838.13;5012689;28;20495;-84
2022/09/07 05:45:38;;;;;;;7.45;1.95;;;;;;;14.07;100.00;100863.25;5004133;28;20048;-83
2022/09/07 05:48:06;;;;;;;7.32;2.00;;;;;;;14.13;100.00;100881.22;5004754;28;20069;-84
2022/09/07 05:50:39;;;;;;;4.05;1.90;;;;;;;14.18;100.00;100881.09;5004835;28;20050;-84
2022/09/07 05:53:09;;;;;;;3.03;1.77;;;;;;;14.13;100.00;100856.59;5031498;28;20049;-85
2022/09/07 05:55:42;;;;;;;4.25;2.25;;;;;;;14.21;100.00;100844.13;4998187;28;20521;-85
2022/09/07 05:58:10;;;;;;;10.98;1.95;;;;;;;14.16;100.00;100866.13;5038234;28;20049;-85
2022/09/07 06:00:38;;;;;;;9.18;2.17;;;;;;;14.19;100.00;100881.94;5001191;28;20050;-86
2022/09/07 06:03:11;;;;;;;3.50;1.80;;;;;;;14.18;100.00;100881.09;4998116;28;20470;-83
2022/09/07 06:05:44;;;;;;;4.45;1.88;;;;;;;14.21;100.00;100852.34;5003229;28;20053;-83
2022/09/07 06:08:19;;;;;;;8.90;1.95;;;;;;;14.22;100.00;100854.75;4999618;28;20065;-84
2022/09/07 06:10:52;;;;;;;4.07;2.22;;;;;;;14.14;100.00;100879.28;5009535;28;20046;-83
2022/09/07 06:13:26;;;;;;;8.32;1.98;;;;;;;14.27;100.00;100873.84;5006284;28;20056;-86
2022/09/07 06:15:54;;;;;;;5.15;1.90;;;;;;;14.29;100.00;100873.53;5009079;28;20053;-86
2022/09/07 06:18:30;;;;;;;5.15;2.15;;;;;;;14.32;100.00;100872.97;5008924;28;20540;-86
2022/09/07 06:21:03;;;;;;;4.78;2.03;;;;;;;14.32;100.00;100878.44;5017974;28;20515;-84
2022/09/07 06:23:39;;;;;;;3.63;1.90;;;;;;;14.34;100.00;100884.41;5009742;28;20050;-82
2022/09/07 06:26:14;;;;;;;5.38;2.38;;;;;;;14.42;100.00;100871.97;5016108;28;20517;-85
2022/09/07 06:28:48;;;;;;;4.57;2.00;;;;;;;14.50;100.00;100851.28;5022972;28;20506;-84
2022/09/07 06:31:23;;;;;;;3.50;2.00;;;;;;;14.49;100.00;100850.47;5007012;28;20049;-84
2022/09/07 06:33:57;;;;;;;4.43;2.08;;;;;;;14.51;100.00;100841.97;5012329;28;20045;-83
2022/09/07 06:36:27;;;;;;;5.55;2.33;;;;;;;14.45;100.00;100846.72;5017727;28;20049;-85
2022/09/07 06:39:00;;;;;;;11.50;2.58;;;;;;;14.55;100.00;100837.50;5044704;28;20058;-85
2022/09/07 06:41:33;;;;;;;8.48;2.60;;;;;;;14.55;100.00;100843.78;5014631;28;20068;-85
2022/09/07 06:44:07;;;;;;;9.95;2.85;;;;;;;14.54;100.00;100833.13;5013379;28;20038;-84
2022/09/07 06:46:40;;;;;;;4.45;2.22;;;;;;;14.63;100.00;100832.16;5015169;28;20058;-84
2022/09/07 06:49:13;;;;;;;15.57;2.35;;;;;;;14.55;100.00;100840.25;4994651;28;20062;-86
2022/09/07 06:51:41;;;;;;;3.35;2.10;;;;;;;14.57;100.00;100844.31;5009027;28;20792;-86
2022/09/07 06:54:16;;;;;;;4.70;2.20;;;;;;;14.62;100.00;100857.06;4991290;28;20506;-86
2022/09/07 06:56:49;;;;;;;4.10;2.22;;;;;;;14.60;100.00;100853.84;4997259;28;20050;-85
2022/09/07 06:59:22;;;;;;;7.45;2.08;;;;;;;14.55;100.00;100851.19;4994633;28;20850;-88
2022/09/07 07:01:50;;;;;;;6.47;2.20;;;;;;;14.64;100.00;100846.69;5007917;28;20568;-86
2022/09/07 07:04:19;;;;;;;3.63;2.10;;;;;;;14.66;100.00;100847.16;4991935;28;20073;-86
2022/09/07 07:06:47;;;;;;;6.72;2.30;;;;;;;14.69;100.00;100837.53;4995072;28;21184;-86
2022/09/07 07:09:21;;;;;;;8.02;2.65;;;;;;;14.82;100.00;100835.91;4998220;28;20117;-84
2022/09/07 07:11:54;;;;;;;4.07;2.08;;;;;;;14.84;100.00;100822.72;4990082;28;21372;-86
2022/09/07 07:14:27;;;;;;;8.23;2.00;;;;;;;15.00;100.00;100815.81;4994600;28;20423;-84
2022/09/07 07:17:01;;;;;;;5.68;2.28;;;;;;;14.92;100.00;100819.28;4991024;28;20054;-88
2022/09/07 07:19:29;;;;;;;4.05;2.25;;;;;;;15.02;100.00;100815.50;5003018;28;20058;-84
2022/09/07 07:22:02;;;;;;;11.93;2.15;;;;;;;15.03;100.00;100811.66;4999316;28;20061;-85
2022/09/07 07:24:36;;;;;;;5.47;2.40;;;;;;;15.12;100.00;100828.97;4995642;28;20058;-85
2022/09/07 07:27:10;;;;;;;9.38;2.00;;;;;;;15.18;100.00;100813.22;4997114;28;20069;-85
2022/09/07 07:29:43;;;;;;;14.35;4.13;;;;;;;15.25;100.00;100817.19;5008588;28;20046;-86
2022/09/07 07:32:16;;;;;;;6.05;2.10;;;;;;;15.30;100.00;100828.06;4992004;28;20461;-83
2022/09/07 07:34:49;;;;;;;5.97;2.13;;;;;;;15.16;100.00;100824.50;4991812;28;20054;-82
2022/09/07 07:37:22;;;;;;;4.88;1.90;;;;;;;15.29;100.00;100820.13;4989075;28;20498;-81
2022/09/07 07:39:57;;;;;;;5.70;2.15;;;;;;;15.25;100.00;100824.63;4993547;28;20061;-82
2022/09/07 07:42:31;;;;;;;6.93;2.20;;;;;;;15.33;100.00;100815.66;4990050;28;20049;-82
2022/09/07 07:45:05;;;;;;;3.70;2.10;;;;;;;15.39;100.00;100814.41;5028717;28;20813;-80
2022/09/07 07:47:38;;;;;;;11.63;2.80;;;;;;;15.32;100.00;100811.28;4985525;28;20054;-81
2022/09/07 07:50:12;;;;;;;4.18;2.28;;;;;;;15.23;100.00;100818.63;4994944;28;20064;-81
2022/09/07 07:52:40;;;;;;;5.47;2.25;;;;;;;15.30;100.00;100808.84;4990038;28;20058;-81
2022/09/07 07:55:15;;;;;;;6.75;2.13;;;;;;;15.19;100.00;100799.25;4992610;28;20065;-80
2022/09/07 07:57:48;;;;;;;4.55;2.30;;;;;;;15.30;100.00;100797.88;4986030;28;20676;-84
2022/09/07 08:00:23;;;;;;;5.35;2.30;;;;;;;15.37;100.00;100789.25;4996124;28;20054;-84
2022/09/07 08:02:51;;;;;;;3.60;1.77;;;;;;;15.33;100.00;100782.75;5007731;28;20096;-83
2022/09/07 08:05:24;;;;;;;4.03;2.15;;;;;;;15.42;100.00;100775.38;4994413;28;20066;-84
2022/09/07 08:07:58;;;;;;;3.42;1.80;;;;;;;15.35;100.00;100769.53;4993659;28;20052;-83
2022/09/07 08:10:33;;;;;;;4.57;1.63;;;;;;;15.42;100.00;100775.38;4996295;28;20054;-84
2022/09/07 08:13:06;;;;;;;4.03;1.85;;;;;;;15.32;100.00;100759.19;4989207;28;20511;-87
2022/09/07 08:15:44;;;;;;;5.85;1.73;;;;;;;15.44;100.00;100764.13;4990816;28;20061;-83
2022/09/07 08:18:17;;;;;;;6.15;1.75;;;;;;;15.38;100.00;100757.13;4993786;28;20065;-84
2022/09/07 08:20:50;;;;;;;6.40;1.90;;;;;;;15.39;100.00;100758.78;4995618;28;20041;-83
2022/09/07 08:23:24;;;;;;;6.38;2.33;;;;;;;15.30;100.00;100761.41;4993096;28;20058;-85
2022/09/07 08:25:57;;;;;;;5.47;2.00;;;;;;;15.33;100.00;100787.41;4995553;28;20054;-85
2022/09/07 08:28:32;;;;;;;6.22;2.17;;;;;;;15.33;100.00;100796.47;4991189;28;20057;-81
2022/09/07 08:31:04;;;;;;;4.97;2.40;;;;;;;15.33;100.00;100782.75;4988171;28;20057;-83
2022/09/07 08:33:39;;;;;;;7.32;2.20;;;;;;;15.25;100.00;100773.31;5011828;28;20057;-85
2022/09/07 08:36:14;;;;;;;9.95;2.30;;;;;;;15.21;100.00;100786.03;4995072;28;20054;-84
2022/09/07 08:38:48;;;;;;;5.10;2.10;;;;;;;15.18;100.00;100792.13;4990005;28;20061;-86
2022/09/07 08:41:39;;;;;;;5.70;2.25;;;;;;;15.06;100.00;100789.91;4994403;28;20054;-85
2022/09/07 08:44:24;;;;;;;11.40;2.40;;;;;;;15.11;100.00;100783.53;4988980;28;20058;-83
2022/09/07 08:47:01;;;;;;;8.98;2.67;;;;;;;14.98;100.00;100781.63;4981312;28;20058;-84
2022/09/07 08:49:40;;;;;;;9.38;3.53;;;;;;;14.99;100.00;100761.31;5009798;28;20065;-85
2022/09/07 08:52:16;;;;;;;4.38;2.17;;;;;;;14.86;100.00;100747.34;5004937;28;20065;-84
2022/09/07 08:54:58;;;;;;;10.43;2.50;;;;;;;14.84;100.00;100716.69;4984858;28;20053;-83
2022/09/07 08:57:32;;;;;;;4.25;2.28;;;;;;;14.83;100.00;100689.59;4987165;28;20046;-83
2022/09/07 09:00:10;;;;;;;6.30;2.30;;;;;;;14.72;100.00;100695.31;4991181;28;20057;-83
2022/09/07 09:02:43;;;;;;;5.70;2.10;;;;;;;14.76;100.00;100690.00;4988262;28;20061;-83
2022/09/07 09:05:24;;;;;;;11.38;2.75;;;;;;;14.83;100.00;100692.34;4992880;28;20693;-83
2022/09/07 09:08:10;;;;;;;8.23;2.50;;;;;;;14.69;100.00;100698.63;4982728;28;20061;-82
2022/09/07 09:10:55;;;;;;;7.75;2.88;;;;;;;14.82;100.00;100707.13;5002967;28;20448;-83
2022/09/07 09:13:43;;;;;;;8.15;2.33;;;;;;;14.86;100.00;100721.84;4983802;28;20053;-82
2022/09/07 09:16:23;;;;;;;4.82;2.55;;;;;;;14.79;100.00;100708.59;5008636;28;20053;-82
2022/09/07 09:19:12;;;;;;;6.13;2.90;;;;;;;14.80;100.00;100712.94;4980523;28;20057;-84
2022/09/07 09:21:45;;;;;;;9.32;2.65;;;;;;;14.87;100.00;100715.25;4981870;28;20430;-83
2022/09/07 09:24:20;;;;;;;4.07;1.90;;;;;;;14.93;100.00;100714.03;5000516;28;20527;-83
2022/09/07 09:26:57;;;;;;;12.30;2.40;;;;;;;15.02;100.00;100717.66;4990588;28;20057;-83
2022/09/07 09:29:33;;;;;;;8.77;2.60;;;;;;;15.23;100.00;100711.69;4982207;28;20610;-83
2022/09/07 09:32:36;;;;;;;5.13;2.50;;;;;;;15.45;100.00;100710.88;4984786;28;20383;-84
2022/09/07 09:35:15;;;;;;;7.50;2.20;;;;;;;15.45;100.00;100680.72;4983413;28;21180;-82
2022/09/07 09:37:48;;;;;;;5.55;2.30;;;;;;;15.79;100.00;100713.06;5001595;28;20065;-84
2022/09/07 09:40:23;;;;;;;6.50;2.30;;;;;;;15.92;100.00;100725.09;4999696;28;20109;-85
2022/09/07 09:43:02;;;;;;;4.78;2.40;;;;;;;15.97;100.00;100727.69;4997519;28;20065;-83
2022/09/07 09:45:44;;;;;;;6.63;2.63;;;;;;;16.17;100.00;100744.72;4990329;28;20073;-83
2022/09/07 09:48:19;;;;;;;5.43;2.45;;;;;;;16.35;100.00;100747.56;4968828;28;20050;-84
2022/09/07 09:50:56;;;;;;;8.82;2.97;;;;;;;16.68;100.00;100767.22;4994330;28;20050;-82
2022/09/07 09:53:32;;;;;;;5.50;2.55;;;;;;;17.02;100.00;100762.97;4992901;28;20060;-84
2022/09/07 09:56:06;;;;;;;5.70;2.83;;;;;;;17.30;100.00;100757.16;4994807;28;20046;-85
2022/09/07 09:58:36;;;;;;;5.57;2.90;;;;;;;17.30;100.00;100744.22;4993222;28;20058;-83
2022/09/07 10:01:23;;;;;;;4.95;2.63;;;;;;;17.46;100.00;100757.50;4992793;28;20062;-83
2022/09/07 10:03:56;;;;;;;9.75;3.15;;;;;;;17.48;100.00;100764.28;4997734;28;20052;-83
2022/09/07 10:06:29;;;;;;;4.15;2.45;;;;;;;17.64;100.00;100755.53;4994526;28;20108;-84
2022/09/07 10:09:02;;;;;;;5.72;2.70;;;;;;;17.90;100.00;100768.41;4989463;28;20053;-86
2022/09/07 10:11:42;;;;;;;7.40;3.72;;;;;;;18.04;100.00;100765.53;4984905;28;20057;-83
2022/09/07 10:14:18;;;;;;;5.55;3.22;;;;;;;17.99;100.00;100775.56;4979972;28;20604;-82
2022/09/07 10:16:53;;;;;;;7.20;3.42;;;;;;;17.84;100.00;100765.03;4978547;28;21276;-82
2022/09/07 10:19:33;;;;;;;7.00;3.17;;;;;;;18.03;100.00;100764.69;4972620;28;20604;-82
2022/09/07 10:22:22;;;;;;;8.35;3.60;;;;;;;18.11;100.00;100754.81;4978288;28;20759;-80
2022/09/07 10:24:55;;;;;;;7.72;3.47;;;;;;;18.24;100.00;100751.00;4984889;28;20065;-82
2022/09/07 10:27:33;;;;;;;9.43;3.75;;;;;;;18.30;100.00;100755.22;4977309;28;20056;-82
2022/09/07 10:30:14;;;;;;;6.50;3.50;;;;;;;18.20;100.00;100752.81;4972629;28;20073;-85
2022/09/07 10:33:00;;;;;;;5.20;3.00;;;;;;;18.13;100.00;100764.34;4989582;28;20057;-84
2022/09/07 10:35:31;;;;;;;6.15;3.03;;;;;;;18.17;100.00;100758.97;4976448;28;20852;-85
2022/09/07 10:38:16;;;;;;;5.82;3.45;;;;;;;18.36;100.00;100759.38;4980336;28;20490;-84
2022/09/07 10:40:57;;;;;;;9.27;3.28;;;;;;;18.27;100.00;100764.13;4980061;28;20050;-83
2022/09/07 10:43:42;;;;;;;7.15;3.35;;;;;;;18.55;100.00;100752.66;4979198;28;20068;-85
2022/09/07 10:46:24;;;;;;;10.55;3.55;;;;;;;18.53;100.00;100743.91;4982392;28;20057;-83
2022/09/07 10:49:09;;;;;;;6.38;4.00;;;;;;;18.50;100.00;100741.81;4955062;28;20060;-84
2022/09/07 10:51:51;;;;;;;9.15;3.72;;;;;;;18.65;100.00;100738.50;4977998;28;20050;-83
2022/09/07 10:54:35;;;;;;;12.43;3.58;;;;;;;18.72;100.00;100739.94;4980623;28;20058;-83
2022/09/07 10:57:19;;;;;;;6.10;3.30;;;;;;;18.88;100.00;100724.44;4982974;28;20049;-83
2022/09/07 11:00:03;;;;;;;6.30;3.65;;;;;;;18.65;100.00;100730.22;4974745;28;20058;-85
2022/09/07 11:02:54;;;;;;;7.82;4.07;;;;;;;18.62;100.00;100732.84;4981882;28;20557;-84
2022/09/07 11:05:39;;;;;;;5.78;3.63;;;;;;;18.62;100.00;100722.63;4997486;28;22338;-85
2022/09/07 11:08:26;;;;;;;11.93;7.55;;;;;;;18.80;100.00;100720.56;4999661;28;20057;-84
2022/09/07 11:11:05;;;;;;;10.35;3.80;;;;;;;18.92;100.00;100725.38;4996562;28;20409;-86
2022/09/07 11:13:41;;;;;;;13.77;3.92;;;;;;;18.89;100.00;100723.28;4996045;28;20049;-85
2022/09/07 11:16:18;;;;;;;9.95;4.43;;;;;;;19.01;100.00;100723.34;4995391;28;20053;-85
2022/09/07 11:18:55;;;;;;;7.97;3.92;;;;;;;18.92;100.00;100711.59;4995745;28;20053;-83
2022/09/07 11:21:35;;;;;;;7.40;3.50;;;;;;;19.11;100.00;100713.91;5003946;28;20068;-84
2022/09/07 11:24:17;;;;;;;8.57;4.10;;;;;;;19.16;100.00;100716.44;4997878;28;20053;-84
2022/09/07 11:26:56;;;;;;;10.73;3.83;;;;;;;19.20;100.00;100711.06;4994529;28;20580;-84
2022/09/07 11:29:36;;;;;;;9.18;3.92;;;;;;;19.23;100.00;100704.84;4995355;28;20057;-83
2022/09/07 11:32:13;;;;;;;7.50;3.97;;;;;;;19.42;100.00;100696.09;5001375;28;20713;-84
2022/09/07 11:34:50;;;;;;;6.85;3.70;;;;;;;19.63;100.00;100696.03;4999978;28;20398;-84
2022/09/07 11:37:26;;;;;;;;;;;;;;;19.57;100.00;100704.84;4999142;28;20064;-83
2022/09/07 11:40:04;;;;;;;6.55;3.78;;;;;;;19.80;100.00;100711.63;5001667;28;19929;-85
2022/09/07 11:42:48;;;;;;;6.40;3.95;;;;;;;19.78;100.00;100704.81;4989995;28;20065;-84
2022/09/07 11:45:22;;;;;;;7.72;4.15;;;;;;;19.93;100.00;100698.66;5039215;28;20056;-84
2022/09/07 11:47:59;;;;;;;7.10;4.03;;;;;;;20.05;100.00;100693.16;4968387;28;20065;-83
2022/09/07 11:50:33;;;;;;;8.75;3.90;;;;;;;20.04;100.00;100696.25;4993595;28;20258;-83
2022/09/07 11:53:07;;;;;;;6.20;4.05;;;;;;;20.10;100.00;100689.34;4992608;28;20881;-84
2022/09/07 11:55:44;;;;;;;12.60;4.22;;;;;;;20.28;100.00;100692.69;4998967;28;20385;-84